sensor_id;sensor_type;location;lat;lon;timestamp;P1;durP1;ratioP1;P2;durP2;ratioP2
55706;SDS011;41608;45.384;20.394;2023-02-15T00:01:14;97.50;;;57.75;;
55706;SDS011;41608;45.384;20.394;2023-02-15T00:03:40;91.82;;;56.10;;
55706;SDS011;41608;45.384;20.394;2023-02-15T00:06:06;97.03;;;55.28;;
55706;SDS011;41608;45.384;20.394;2023-02-15T00:08:32;89.72;;;57.92;;
55706;SDS011;41608;45.384;20.394;2023-02-15T00:11:12;92.47;;;54.00;;
55706;SDS011;41608;45.384;20.394;2023-02-15T00:13:41;88.93;;;56.63;;
55706;SDS011;41608;45.384;20.394;2023-02-15T00:16:10;99.75;;;56.38;;
55706;SDS011;41608;45.384;20.394;2023-02-15T00:18:36;86.95;;;51.83;;
55706;SDS011;41608;45.384;20.394;2023-02-15T00:21:03;96.43;;;56.47;;
55706;SDS011;41608;45.384;20.394;2023-02-15T00:23:30;93.82;;;55.70;;
55706;SDS011;41608;45.384;20.394;2023-02-15T00:26:09;89.53;;;53.60;;
55706;SDS011;41608;45.384;20.394;2023-02-15T00:28:36;92.00;;;56.10;;
55706;SDS011;41608;45.384;20.394;2023-02-15T00:31:02;92.72;;;53.28;;
55706;SDS011;41608;45.384;20.394;2023-02-15T00:33:28;90.50;;;53.13;;
55706;SDS011;41608;45.384;20.394;2023-02-15T00:35:58;85.10;;;52.72;;
55706;SDS011;41608;45.384;20.394;2023-02-15T00:38:25;85.75;;;53.30;;
55706;SDS011;41608;45.384;20.394;2023-02-15T00:40:53;87.53;;;54.63;;
55706;SDS011;41608;45.384;20.394;2023-02-15T00:43:19;83.72;;;52.53;;
55706;SDS011;41608;45.384;20.394;2023-02-15T00:45:45;89.97;;;53.60;;
55706;SDS011;41608;45.384;20.394;2023-02-15T00:48:11;88.75;;;52.83;;
55706;SDS011;41608;45.384;20.394;2023-02-15T00:50:37;88.47;;;52.38;;
55706;SDS011;41608;45.384;20.394;2023-02-15T00:53:03;97.03;;;56.15;;
55706;SDS011;41608;45.384;20.394;2023-02-15T00:55:29;99.80;;;58.78;;
55706;SDS011;41608;45.384;20.394;2023-02-15T00:57:55;84.57;;;51.67;;
55706;SDS011;41608;45.384;20.394;2023-02-15T01:00:23;94.63;;;55.75;;
55706;SDS011;41608;45.384;20.394;2023-02-15T01:02:49;90.40;;;53.13;;
55706;SDS011;41608;45.384;20.394;2023-02-15T01:05:15;91.50;;;56.75;;
55706;SDS011;41608;45.384;20.394;2023-02-15T01:07:41;83.72;;;53.13;;
55706;SDS011;41608;45.384;20.394;2023-02-15T01:10:07;89.45;;;52.92;;
55706;SDS011;41608;45.384;20.394;2023-02-15T01:12:33;90.68;;;54.20;;
55706;SDS011;41608;45.384;20.394;2023-02-15T01:14:59;92.03;;;51.70;;
55706;SDS011;41608;45.384;20.394;2023-02-15T01:17:26;93.03;;;55.58;;
55706;SDS011;41608;45.384;20.394;2023-02-15T01:19:52;80.35;;;49.40;;
55706;SDS011;41608;45.384;20.394;2023-02-15T01:22:18;88.25;;;51.60;;
55706;SDS011;41608;45.384;20.394;2023-02-15T01:24:44;80.70;;;50.13;;
55706;SDS011;41608;45.384;20.394;2023-02-15T01:27:10;84.97;;;50.83;;
55706;SDS011;41608;45.384;20.394;2023-02-15T01:29:36;88.03;;;51.45;;
55706;SDS011;41608;45.384;20.394;2023-02-15T01:32:03;92.43;;;53.20;;
55706;SDS011;41608;45.384;20.394;2023-02-15T01:34:29;86.30;;;51.63;;
55706;SDS011;41608;45.384;20.394;2023-02-15T01:36:55;86.78;;;52.03;;
55706;SDS011;41608;45.384;20.394;2023-02-15T01:39:21;89.78;;;53.55;;
55706;SDS011;41608;45.384;20.394;2023-02-15T01:41:47;90.15;;;53.30;;
55706;SDS011;41608;45.384;20.394;2023-02-15T01:47:00;82.63;;;50.78;;
55706;SDS011;41608;45.384;20.394;2023-02-15T01:49:26;88.10;;;52.20;;
55706;SDS011;41608;45.384;20.394;2023-02-15T01:51:53;85.32;;;51.53;;
55706;SDS011;41608;45.384;20.394;2023-02-15T01:54:29;79.70;;;50.63;;
55706;SDS011;41608;45.384;20.394;2023-02-15T01:56:58;86.78;;;53.28;;
55706;SDS011;41608;45.384;20.394;2023-02-15T01:59:26;86.65;;;50.72;;
55706;SDS011;41608;45.384;20.394;2023-02-15T02:01:55;91.28;;;53.90;;
55706;SDS011;41608;45.384;20.394;2023-02-15T02:06:52;85.60;;;52.72;;
55706;SDS011;41608;45.384;20.394;2023-02-15T02:09:19;85.43;;;51.47;;
55706;SDS011;41608;45.384;20.394;2023-02-15T02:11:46;92.40;;;52.20;;
55706;SDS011;41608;45.384;20.394;2023-02-15T02:14:13;99.70;;;52.17;;
55706;SDS011;41608;45.384;20.394;2023-02-15T02:27:29;90.60;;;53.92;;
55706;SDS011;41608;45.384;20.394;2023-02-15T02:40:36;89.72;;;52.03;;
55706;SDS011;41608;45.384;20.394;2023-02-15T02:43:10;90.68;;;50.90;;
55706;SDS011;41608;45.384;20.394;2023-02-15T02:45:43;87.68;;;50.00;;
55706;SDS011;41608;45.384;20.394;2023-02-15T02:48:17;81.40;;;49.20;;
55706;SDS011;41608;45.384;20.394;2023-02-15T02:50:45;77.60;;;49.90;;
55706;SDS011;41608;45.384;20.394;2023-02-15T02:53:11;83.80;;;50.30;;
55706;SDS011;41608;45.384;20.394;2023-02-15T02:55:39;86.10;;;52.08;;
55706;SDS011;41608;45.384;20.394;2023-02-15T02:58:09;87.95;;;49.95;;
55706;SDS011;41608;45.384;20.394;2023-02-15T03:00:42;83.30;;;51.90;;
55706;SDS011;41608;45.384;20.394;2023-02-15T03:03:12;84.05;;;50.55;;
55706;SDS011;41608;45.384;20.394;2023-02-15T03:05:41;87.80;;;51.92;;
55706;SDS011;41608;45.384;20.394;2023-02-15T03:08:07;88.30;;;55.22;;
55706;SDS011;41608;45.384;20.394;2023-02-15T03:10:35;93.20;;;50.88;;
55706;SDS011;41608;45.384;20.394;2023-02-15T03:13:02;88.47;;;52.63;;
55706;SDS011;41608;45.384;20.394;2023-02-15T03:15:29;90.53;;;52.28;;
55706;SDS011;41608;45.384;20.394;2023-02-15T03:18:16;86.05;;;53.22;;
55706;SDS011;41608;45.384;20.394;2023-02-15T03:20:43;95.65;;;54.00;;
55706;SDS011;41608;45.384;20.394;2023-02-15T03:23:13;92.28;;;52.55;;
55706;SDS011;41608;45.384;20.394;2023-02-15T03:25:40;87.53;;;54.20;;
55706;SDS011;41608;45.384;20.394;2023-02-15T03:28:08;93.32;;;51.30;;
55706;SDS011;41608;45.384;20.394;2023-02-15T03:30:36;86.93;;;53.40;;
55706;SDS011;41608;45.384;20.394;2023-02-15T03:33:03;99.43;;;55.00;;
55706;SDS011;41608;45.384;20.394;2023-02-15T03:35:32;87.97;;;53.10;;
55706;SDS011;41608;45.384;20.394;2023-02-15T03:38:00;97.30;;;54.22;;
55706;SDS011;41608;45.384;20.394;2023-02-15T03:40:40;87.70;;;50.38;;
55706;SDS011;41608;45.384;20.394;2023-02-15T03:43:34;86.57;;;48.40;;
55706;SDS011;41608;45.384;20.394;2023-02-15T03:48:50;90.80;;;52.15;;
55706;SDS011;41608;45.384;20.394;2023-02-15T03:51:19;85.38;;;54.80;;
55706;SDS011;41608;45.384;20.394;2023-02-15T03:54:12;77.63;;;50.05;;
55706;SDS011;41608;45.384;20.394;2023-02-15T03:56:40;83.03;;;51.50;;
55706;SDS011;41608;45.384;20.394;2023-02-15T03:59:06;85.35;;;49.92;;
55706;SDS011;41608;45.384;20.394;2023-02-15T04:02:04;82.43;;;49.38;;
55706;SDS011;41608;45.384;20.394;2023-02-15T04:04:37;86.80;;;49.67;;
55706;SDS011;41608;45.384;20.394;2023-02-15T04:07:05;81.25;;;50.08;;
55706;SDS011;41608;45.384;20.394;2023-02-15T04:09:31;82.55;;;51.30;;
55706;SDS011;41608;45.384;20.394;2023-02-15T04:12:16;80.53;;;49.22;;
55706;SDS011;41608;45.384;20.394;2023-02-15T04:14:42;89.40;;;51.35;;
55706;SDS011;41608;45.384;20.394;2023-02-15T04:17:27;80.85;;;48.72;;
55706;SDS011;41608;45.384;20.394;2023-02-15T04:19:54;90.75;;;52.97;;
55706;SDS011;41608;45.384;20.394;2023-02-15T04:22:38;87.78;;;51.60;;
55706;SDS011;41608;45.384;20.394;2023-02-15T04:25:23;79.47;;;51.35;;
55706;SDS011;41608;45.384;20.394;2023-02-15T04:27:53;81.25;;;47.83;;
55706;SDS011;41608;45.384;20.394;2023-02-15T04:30:20;75.70;;;47.83;;
55706;SDS011;41608;45.384;20.394;2023-02-15T04:32:46;80.75;;;47.78;;
55706;SDS011;41608;45.384;20.394;2023-02-15T04:35:13;78.07;;;46.55;;
55706;SDS011;41608;45.384;20.394;2023-02-15T04:37:42;83.05;;;48.03;;
55706;SDS011;41608;45.384;20.394;2023-02-15T04:40:09;84.68;;;51.72;;
55706;SDS011;41608;45.384;20.394;2023-02-15T04:42:35;91.30;;;52.20;;
55706;SDS011;41608;45.384;20.394;2023-02-15T04:45:01;77.38;;;46.70;;
55706;SDS011;41608;45.384;20.394;2023-02-15T04:47:28;81.35;;;46.53;;
55706;SDS011;41608;45.384;20.394;2023-02-15T04:49:54;87.60;;;50.47;;
55706;SDS011;41608;45.384;20.394;2023-02-15T04:52:21;79.18;;;47.72;;
55706;SDS011;41608;45.384;20.394;2023-02-15T04:54:47;75.47;;;44.85;;
55706;SDS011;41608;45.384;20.394;2023-02-15T04:57:13;82.47;;;48.92;;
55706;SDS011;41608;45.384;20.394;2023-02-15T04:59:39;82.40;;;50.22;;
55706;SDS011;41608;45.384;20.394;2023-02-15T05:02:05;81.43;;;48.50;;
55706;SDS011;41608;45.384;20.394;2023-02-15T05:04:31;75.53;;;45.45;;
55706;SDS011;41608;45.384;20.394;2023-02-15T05:06:57;81.03;;;46.53;;
55706;SDS011;41608;45.384;20.394;2023-02-15T05:09:24;78.93;;;46.92;;
55706;SDS011;41608;45.384;20.394;2023-02-15T05:11:50;75.53;;;48.35;;
55706;SDS011;41608;45.384;20.394;2023-02-15T05:14:16;78.70;;;47.13;;
55706;SDS011;41608;45.384;20.394;2023-02-15T05:16:42;85.68;;;51.47;;
55706;SDS011;41608;45.384;20.394;2023-02-15T05:19:08;83.85;;;52.17;;
55706;SDS011;41608;45.384;20.394;2023-02-15T05:21:34;85.43;;;52.47;;
55706;SDS011;41608;45.384;20.394;2023-02-15T05:24:00;88.55;;;51.13;;
55706;SDS011;41608;45.384;20.394;2023-02-15T05:26:46;81.60;;;49.10;;
55706;SDS011;41608;45.384;20.394;2023-02-15T05:29:31;78.72;;;48.08;;
55706;SDS011;41608;45.384;20.394;2023-02-15T05:31:57;80.50;;;48.85;;
55706;SDS011;41608;45.384;20.394;2023-02-15T05:34:23;81.18;;;48.17;;
55706;SDS011;41608;45.384;20.394;2023-02-15T05:36:49;84.20;;;52.30;;
55706;SDS011;41608;45.384;20.394;2023-02-15T05:39:17;83.70;;;54.08;;
55706;SDS011;41608;45.384;20.394;2023-02-15T05:41:43;79.90;;;44.75;;
55706;SDS011;41608;45.384;20.394;2023-02-15T05:44:09;77.03;;;48.33;;
55706;SDS011;41608;45.384;20.394;2023-02-15T05:46:35;72.53;;;46.97;;
55706;SDS011;41608;45.384;20.394;2023-02-15T05:49:01;77.25;;;48.17;;
55706;SDS011;41608;45.384;20.394;2023-02-15T05:51:27;88.57;;;48.90;;
55706;SDS011;41608;45.384;20.394;2023-02-15T05:53:53;83.75;;;46.78;;
55706;SDS011;41608;45.384;20.394;2023-02-15T05:56:19;80.35;;;47.90;;
55706;SDS011;41608;45.384;20.394;2023-02-15T05:58:45;87.75;;;53.55;;
55706;SDS011;41608;45.384;20.394;2023-02-15T06:03:38;93.10;;;52.42;;
55706;SDS011;41608;45.384;20.394;2023-02-15T06:06:04;87.15;;;52.83;;
55706;SDS011;41608;45.384;20.394;2023-02-15T06:08:31;82.18;;;51.40;;
55706;SDS011;41608;45.384;20.394;2023-02-15T06:10:57;85.35;;;49.85;;
55706;SDS011;41608;45.384;20.394;2023-02-15T06:13:23;88.28;;;50.83;;
55706;SDS011;41608;45.384;20.394;2023-02-15T06:15:50;89.65;;;52.53;;
55706;SDS011;41608;45.384;20.394;2023-02-15T06:18:16;87.90;;;51.65;;
55706;SDS011;41608;45.384;20.394;2023-02-15T06:20:42;83.03;;;53.28;;
55706;SDS011;41608;45.384;20.394;2023-02-15T06:23:08;86.20;;;49.10;;
55706;SDS011;41608;45.384;20.394;2023-02-15T06:25:34;78.60;;;47.53;;
55706;SDS011;41608;45.384;20.394;2023-02-15T06:28:00;77.78;;;48.53;;
55706;SDS011;41608;45.384;20.394;2023-02-15T06:30:26;76.38;;;48.22;;
55706;SDS011;41608;45.384;20.394;2023-02-15T06:32:52;74.55;;;47.58;;
55706;SDS011;41608;45.384;20.394;2023-02-15T06:35:18;74.57;;;47.13;;
55706;SDS011;41608;45.384;20.394;2023-02-15T06:37:47;78.88;;;48.13;;
55706;SDS011;41608;45.384;20.394;2023-02-15T06:40:13;78.47;;;46.45;;
55706;SDS011;41608;45.384;20.394;2023-02-15T06:42:42;81.80;;;49.15;;
55706;SDS011;41608;45.384;20.394;2023-02-15T06:45:08;83.25;;;52.55;;
55706;SDS011;41608;45.384;20.394;2023-02-15T06:47:34;85.40;;;51.08;;
55706;SDS011;41608;45.384;20.394;2023-02-15T06:50:00;80.55;;;51.88;;
55706;SDS011;41608;45.384;20.394;2023-02-15T06:52:27;84.13;;;51.97;;
55706;SDS011;41608;45.384;20.394;2023-02-15T06:54:54;89.88;;;53.83;;
55706;SDS011;41608;45.384;20.394;2023-02-15T06:57:20;106.57;;;62.67;;
55706;SDS011;41608;45.384;20.394;2023-02-15T06:59:46;96.95;;;57.17;;
55706;SDS011;41608;45.384;20.394;2023-02-15T07:02:13;92.45;;;58.35;;
55706;SDS011;41608;45.384;20.394;2023-02-15T07:04:39;96.78;;;54.60;;
55706;SDS011;41608;45.384;20.394;2023-02-15T07:07:07;83.88;;;51.10;;
55706;SDS011;41608;45.384;20.394;2023-02-15T07:09:34;83.35;;;51.40;;
55706;SDS011;41608;45.384;20.394;2023-02-15T07:12:00;81.85;;;49.88;;
55706;SDS011;41608;45.384;20.394;2023-02-15T07:14:49;86.13;;;49.25;;
55706;SDS011;41608;45.384;20.394;2023-02-15T07:17:15;74.32;;;48.80;;
55706;SDS011;41608;45.384;20.394;2023-02-15T07:19:42;89.25;;;48.45;;
55706;SDS011;41608;45.384;20.394;2023-02-15T07:22:08;75.28;;;46.15;;
55706;SDS011;41608;45.384;20.394;2023-02-15T07:24:34;76.95;;;47.38;;
55706;SDS011;41608;45.384;20.394;2023-02-15T07:27:00;70.63;;;47.53;;
55706;SDS011;41608;45.384;20.394;2023-02-15T07:29:26;76.10;;;45.67;;
55706;SDS011;41608;45.384;20.394;2023-02-15T07:31:52;72.75;;;44.20;;
55706;SDS011;41608;45.384;20.394;2023-02-15T07:34:18;75.90;;;44.50;;
55706;SDS011;41608;45.384;20.394;2023-02-15T07:36:44;76.07;;;44.13;;
55706;SDS011;41608;45.384;20.394;2023-02-15T07:39:10;71.82;;;42.92;;
55706;SDS011;41608;45.384;20.394;2023-02-15T07:41:37;70.18;;;42.47;;
55706;SDS011;41608;45.384;20.394;2023-02-15T07:44:03;72.18;;;43.33;;
55706;SDS011;41608;45.384;20.394;2023-02-15T07:46:29;72.80;;;43.60;;
55706;SDS011;41608;45.384;20.394;2023-02-15T07:48:55;69.70;;;41.60;;
55706;SDS011;41608;45.384;20.394;2023-02-15T07:51:21;74.68;;;46.22;;
55706;SDS011;41608;45.384;20.394;2023-02-15T07:53:47;73.38;;;42.85;;
55706;SDS011;41608;45.384;20.394;2023-02-15T07:56:14;74.72;;;44.00;;
55706;SDS011;41608;45.384;20.394;2023-02-15T07:58:40;78.75;;;45.05;;
55706;SDS011;41608;45.384;20.394;2023-02-15T08:01:33;69.65;;;43.15;;
55706;SDS011;41608;45.384;20.394;2023-02-15T08:04:00;73.30;;;42.35;;
55706;SDS011;41608;45.384;20.394;2023-02-15T08:06:27;63.58;;;40.47;;
55706;SDS011;41608;45.384;20.394;2023-02-15T08:08:54;73.97;;;40.97;;
55706;SDS011;41608;45.384;20.394;2023-02-15T08:11:23;71.07;;;42.78;;
55706;SDS011;41608;45.384;20.394;2023-02-15T08:14:09;77.15;;;43.05;;
55706;SDS011;41608;45.384;20.394;2023-02-15T08:19:39;65.82;;;43.08;;
55706;SDS011;41608;45.384;20.394;2023-02-15T08:22:05;64.50;;;39.65;;
55706;SDS011;41608;45.384;20.394;2023-02-15T08:24:32;69.35;;;41.38;;
55706;SDS011;41608;45.384;20.394;2023-02-15T08:26:59;66.97;;;42.70;;
55706;SDS011;41608;45.384;20.394;2023-02-15T08:29:27;67.30;;;43.20;;
55706;SDS011;41608;45.384;20.394;2023-02-15T08:31:55;65.15;;;42.28;;
55706;SDS011;41608;45.384;20.394;2023-02-15T08:34:24;58.22;;;38.22;;
55706;SDS011;41608;45.384;20.394;2023-02-15T08:36:50;57.25;;;37.08;;
55706;SDS011;41608;45.384;20.394;2023-02-15T08:39:16;65.88;;;38.88;;
55706;SDS011;41608;45.384;20.394;2023-02-15T08:41:43;59.75;;;37.58;;
55706;SDS011;41608;45.384;20.394;2023-02-15T08:44:09;66.18;;;41.42;;
55706;SDS011;41608;45.384;20.394;2023-02-15T08:46:36;61.78;;;35.90;;
55706;SDS011;41608;45.384;20.394;2023-02-15T08:49:03;64.30;;;37.70;;
55706;SDS011;41608;45.384;20.394;2023-02-15T08:51:30;66.43;;;39.72;;
55706;SDS011;41608;45.384;20.394;2023-02-15T08:53:59;61.92;;;38.63;;
55706;SDS011;41608;45.384;20.394;2023-02-15T08:56:27;63.55;;;37.47;;
55706;SDS011;41608;45.384;20.394;2023-02-15T08:58:53;58.17;;;37.28;;
55706;SDS011;41608;45.384;20.394;2023-02-15T09:01:21;75.53;;;40.50;;
55706;SDS011;41608;45.384;20.394;2023-02-15T09:03:48;57.30;;;35.17;;
55706;SDS011;41608;45.384;20.394;2023-02-15T09:06:15;52.38;;;33.75;;
55706;SDS011;41608;45.384;20.394;2023-02-15T09:08:41;58.45;;;35.25;;
55706;SDS011;41608;45.384;20.394;2023-02-15T09:11:11;55.92;;;34.50;;
55706;SDS011;41608;45.384;20.394;2023-02-15T09:13:38;56.47;;;34.63;;
55706;SDS011;41608;45.384;20.394;2023-02-15T09:16:06;56.78;;;33.15;;
55706;SDS011;41608;45.384;20.394;2023-02-15T09:18:38;53.53;;;34.40;;
55706;SDS011;41608;45.384;20.394;2023-02-15T09:21:11;51.30;;;32.78;;
55706;SDS011;41608;45.384;20.394;2023-02-15T09:23:42;56.13;;;32.45;;
55706;SDS011;41608;45.384;20.394;2023-02-15T09:26:13;56.60;;;35.60;;
55706;SDS011;41608;45.384;20.394;2023-02-15T09:28:39;58.40;;;34.33;;
55706;SDS011;41608;45.384;20.394;2023-02-15T09:33:35;55.10;;;33.45;;
55706;SDS011;41608;45.384;20.394;2023-02-15T09:36:01;62.97;;;36.30;;
55706;SDS011;41608;45.384;20.394;2023-02-15T09:38:28;58.13;;;35.38;;
55706;SDS011;41608;45.384;20.394;2023-02-15T09:43:42;53.25;;;34.13;;
55706;SDS011;41608;45.384;20.394;2023-02-15T09:46:22;58.40;;;35.50;;
55706;SDS011;41608;45.384;20.394;2023-02-15T09:48:52;52.50;;;34.22;;
55706;SDS011;41608;45.384;20.394;2023-02-15T09:54:15;63.13;;;36.95;;
55706;SDS011;41608;45.384;20.394;2023-02-15T09:56:51;52.22;;;32.55;;
55706;SDS011;41608;45.384;20.394;2023-02-15T10:27:51;42.87;;;26.50;;
55706;SDS011;41608;45.384;20.394;2023-02-15T10:30:34;38.63;;;24.60;;
55706;SDS011;41608;45.384;20.394;2023-02-15T10:33:04;36.83;;;23.52;;
55706;SDS011;41608;45.384;20.394;2023-02-15T10:38:35;46.25;;;30.33;;
55706;SDS011;41608;45.384;20.394;2023-02-15T10:46:35;40.63;;;25.95;;
55706;SDS011;41608;45.384;20.394;2023-02-15T10:59:46;36.28;;;26.70;;
55706;SDS011;41608;45.384;20.394;2023-02-15T11:02:27;37.00;;;25.17;;
55706;SDS011;41608;45.384;20.394;2023-02-15T11:05:01;38.10;;;25.00;;
55706;SDS011;41608;45.384;20.394;2023-02-15T11:07:32;35.75;;;23.80;;
55706;SDS011;41608;45.384;20.394;2023-02-15T11:10:01;34.10;;;22.40;;
55706;SDS011;41608;45.384;20.394;2023-02-15T11:12:31;34.58;;;24.13;;
55706;SDS011;41608;45.384;20.394;2023-02-15T11:17:25;35.78;;;23.70;;
55706;SDS011;41608;45.384;20.394;2023-02-15T11:22:30;32.95;;;22.83;;
55706;SDS011;41608;45.384;20.394;2023-02-15T11:24:58;33.95;;;22.60;;
55706;SDS011;41608;45.384;20.394;2023-02-15T11:27:25;32.33;;;23.52;;
55706;SDS011;41608;45.384;20.394;2023-02-15T11:35:01;33.70;;;22.20;;
55706;SDS011;41608;45.384;20.394;2023-02-15T11:37:34;32.40;;;20.67;;
55706;SDS011;41608;45.384;20.394;2023-02-15T11:40:02;36.47;;;23.77;;
55706;SDS011;41608;45.384;20.394;2023-02-15T11:42:29;32.97;;;22.90;;
55706;SDS011;41608;45.384;20.394;2023-02-15T11:47:23;34.20;;;23.08;;
55706;SDS011;41608;45.384;20.394;2023-02-15T11:49:49;34.25;;;23.88;;
55706;SDS011;41608;45.384;20.394;2023-02-15T11:52:16;31.58;;;22.58;;
55706;SDS011;41608;45.384;20.394;2023-02-15T11:54:45;32.42;;;21.08;;
55706;SDS011;41608;45.384;20.394;2023-02-15T11:57:14;30.60;;;19.83;;
55706;SDS011;41608;45.384;20.394;2023-02-15T11:59:42;31.48;;;20.13;;
55706;SDS011;41608;45.384;20.394;2023-02-15T12:02:15;33.58;;;22.33;;
55706;SDS011;41608;45.384;20.394;2023-02-15T12:04:42;31.30;;;21.80;;
55706;SDS011;41608;45.384;20.394;2023-02-15T12:07:32;33.90;;;22.95;;
55706;SDS011;41608;45.384;20.394;2023-02-15T12:10:02;34.13;;;21.67;;
55706;SDS011;41608;45.384;20.394;2023-02-15T12:12:37;32.15;;;22.83;;
55706;SDS011;41608;45.384;20.394;2023-02-15T12:15:07;32.22;;;22.23;;
55706;SDS011;41608;45.384;20.394;2023-02-15T12:20:04;38.17;;;25.23;;
55706;SDS011;41608;45.384;20.394;2023-02-15T12:22:34;34.25;;;22.98;;
55706;SDS011;41608;45.384;20.394;2023-02-15T12:25:19;28.67;;;20.10;;
55706;SDS011;41608;45.384;20.394;2023-02-15T12:27:46;31.73;;;22.02;;
55706;SDS011;41608;45.384;20.394;2023-02-15T12:32:52;33.78;;;22.63;;
55706;SDS011;41608;45.384;20.394;2023-02-15T12:37:55;31.80;;;22.13;;
55706;SDS011;41608;45.384;20.394;2023-02-15T12:40:28;30.98;;;22.42;;
55706;SDS011;41608;45.384;20.394;2023-02-15T12:42:55;30.95;;;20.98;;
55706;SDS011;41608;45.384;20.394;2023-02-15T12:50:41;34.13;;;19.90;;
55706;SDS011;41608;45.384;20.394;2023-02-15T12:53:15;32.97;;;20.58;;
55706;SDS011;41608;45.384;20.394;2023-02-15T12:55:57;34.63;;;22.70;;
55706;SDS011;41608;45.384;20.394;2023-02-15T12:58:24;32.80;;;21.48;;
55706;SDS011;41608;45.384;20.394;2023-02-15T13:01:04;29.48;;;20.08;;
55706;SDS011;41608;45.384;20.394;2023-02-15T13:03:37;33.60;;;22.63;;
55706;SDS011;41608;45.384;20.394;2023-02-15T13:06:04;29.63;;;20.83;;
55706;SDS011;41608;45.384;20.394;2023-02-15T13:09:06;29.52;;;21.73;;
55706;SDS011;41608;45.384;20.394;2023-02-15T13:11:25;32.75;;;22.00;;
55706;SDS011;41608;45.384;20.394;2023-02-15T13:16:19;31.85;;;22.60;;
55706;SDS011;41608;45.384;20.394;2023-02-15T13:18:47;33.72;;;22.25;;
55706;SDS011;41608;45.384;20.394;2023-02-15T13:21:20;29.42;;;19.75;;
55706;SDS011;41608;45.384;20.394;2023-02-15T13:23:48;32.00;;;20.38;;
55706;SDS011;41608;45.384;20.394;2023-02-15T13:26:17;30.90;;;20.95;;
55706;SDS011;41608;45.384;20.394;2023-02-15T13:28:45;31.30;;;20.73;;
55706;SDS011;41608;45.384;20.394;2023-02-15T13:31:15;30.30;;;20.58;;
55706;SDS011;41608;45.384;20.394;2023-02-15T13:33:56;28.98;;;19.48;;
55706;SDS011;41608;45.384;20.394;2023-02-15T13:36:27;24.63;;;19.02;;
55706;SDS011;41608;45.384;20.394;2023-02-15T13:44:03;28.42;;;19.63;;
55706;SDS011;41608;45.384;20.394;2023-02-15T13:51:59;32.03;;;21.13;;
55706;SDS011;41608;45.384;20.394;2023-02-15T13:54:29;32.33;;;20.83;;
55706;SDS011;41608;45.384;20.394;2023-02-15T13:59:42;38.35;;;21.98;;
55706;SDS011;41608;45.384;20.394;2023-02-15T14:09:52;27.85;;;20.42;;
55706;SDS011;41608;45.384;20.394;2023-02-15T14:20:22;34.53;;;23.83;;
55706;SDS011;41608;45.384;20.394;2023-02-15T14:23:13;39.53;;;23.70;;
55706;SDS011;41608;45.384;20.394;2023-02-15T14:25:44;34.25;;;22.95;;
55706;SDS011;41608;45.384;20.394;2023-02-15T14:28:18;32.03;;;23.25;;
55706;SDS011;41608;45.384;20.394;2023-02-15T14:30:48;36.47;;;22.35;;
55706;SDS011;41608;45.384;20.394;2023-02-15T14:35:41;39.58;;;24.73;;
55706;SDS011;41608;45.384;20.394;2023-02-15T14:38:22;38.88;;;23.40;;
55706;SDS011;41608;45.384;20.394;2023-02-15T14:40:54;34.30;;;23.52;;
55706;SDS011;41608;45.384;20.394;2023-02-15T14:48:45;39.10;;;24.85;;
55706;SDS011;41608;45.384;20.394;2023-02-15T14:53:56;38.25;;;22.70;;
55706;SDS011;41608;45.384;20.394;2023-02-15T14:56:23;38.28;;;24.40;;
55706;SDS011;41608;45.384;20.394;2023-02-15T15:01:24;38.08;;;23.73;;
55706;SDS011;41608;45.384;20.394;2023-02-15T15:03:51;40.55;;;24.75;;
55706;SDS011;41608;45.384;20.394;2023-02-15T15:06:29;33.70;;;24.23;;
55706;SDS011;41608;45.384;20.394;2023-02-15T15:08:58;40.38;;;25.65;;
55706;SDS011;41608;45.384;20.394;2023-02-15T15:13:55;32.65;;;22.75;;
55706;SDS011;41608;45.384;20.394;2023-02-15T15:19:01;39.00;;;24.25;;
55706;SDS011;41608;45.384;20.394;2023-02-15T15:29:41;37.65;;;24.20;;
55706;SDS011;41608;45.384;20.394;2023-02-15T15:32:08;35.28;;;22.17;;
55706;SDS011;41608;45.384;20.394;2023-02-15T15:37:17;40.63;;;27.75;;
55706;SDS011;41608;45.384;20.394;2023-02-15T15:44:57;44.72;;;27.83;;
55706;SDS011;41608;45.384;20.394;2023-02-15T15:47:50;37.90;;;27.52;;
55706;SDS011;41608;45.384;20.394;2023-02-15T15:50:19;47.65;;;31.67;;
55706;SDS011;41608;45.384;20.394;2023-02-15T15:52:50;55.63;;;38.88;;
55706;SDS011;41608;45.384;20.394;2023-02-15T15:55:18;59.28;;;40.60;;
55706;SDS011;41608;45.384;20.394;2023-02-15T15:57:45;58.67;;;38.65;;
55706;SDS011;41608;45.384;20.394;2023-02-15T16:00:25;57.97;;;37.40;;
55706;SDS011;41608;45.384;20.394;2023-02-15T16:02:55;75.07;;;40.65;;
55706;SDS011;41608;45.384;20.394;2023-02-15T16:05:21;70.50;;;45.72;;
55706;SDS011;41608;45.384;20.394;2023-02-15T16:07:48;70.05;;;37.55;;
55706;SDS011;41608;45.384;20.394;2023-02-15T16:10:27;71.45;;;40.47;;
55706;SDS011;41608;45.384;20.394;2023-02-15T16:12:54;66.10;;;39.20;;
55706;SDS011;41608;45.384;20.394;2023-02-15T16:15:22;61.47;;;39.58;;
55706;SDS011;41608;45.384;20.394;2023-02-15T16:17:50;71.63;;;38.92;;
55706;SDS011;41608;45.384;20.394;2023-02-15T16:20:21;65.22;;;41.78;;
55706;SDS011;41608;45.384;20.394;2023-02-15T16:22:49;63.67;;;37.28;;
55706;SDS011;41608;45.384;20.394;2023-02-15T16:27:46;69.45;;;43.38;;
55706;SDS011;41608;45.384;20.394;2023-02-15T16:30:19;77.65;;;46.92;;
55706;SDS011;41608;45.384;20.394;2023-02-15T16:32:46;95.20;;;50.83;;
55706;SDS011;41608;45.384;20.394;2023-02-15T16:35:14;112.72;;;55.72;;
55706;SDS011;41608;45.384;20.394;2023-02-15T16:37:40;93.90;;;52.92;;
55706;SDS011;41608;45.384;20.394;2023-02-15T16:40:11;109.25;;;61.90;;
55706;SDS011;41608;45.384;20.394;2023-02-15T16:42:46;107.00;;;60.28;;
55706;SDS011;41608;45.384;20.394;2023-02-15T16:45:13;139.60;;;81.78;;
55706;SDS011;41608;45.384;20.394;2023-02-15T16:47:43;143.40;;;79.88;;
55706;SDS011;41608;45.384;20.394;2023-02-15T16:53:03;175.90;;;94.95;;
55706;SDS011;41608;45.384;20.394;2023-02-15T16:55:36;192.43;;;103.10;;
55706;SDS011;41608;45.384;20.394;2023-02-15T16:58:04;179.02;;;97.53;;
55706;SDS011;41608;45.384;20.394;2023-02-15T17:00:31;164.30;;;92.03;;
55706;SDS011;41608;45.384;20.394;2023-02-15T17:03:00;162.23;;;92.85;;
55706;SDS011;41608;45.384;20.394;2023-02-15T17:05:31;158.55;;;89.80;;
55706;SDS011;41608;45.384;20.394;2023-02-15T17:08:14;163.23;;;95.28;;
55706;SDS011;41608;45.384;20.394;2023-02-15T17:13:16;189.10;;;99.03;;
55706;SDS011;41608;45.384;20.394;2023-02-15T17:15:44;188.85;;;107.72;;
55706;SDS011;41608;45.384;20.394;2023-02-15T17:18:20;177.38;;;106.03;;
55706;SDS011;41608;45.384;20.394;2023-02-15T17:20:47;201.60;;;110.97;;
55706;SDS011;41608;45.384;20.394;2023-02-15T17:23:30;192.02;;;109.97;;
55706;SDS011;41608;45.384;20.394;2023-02-15T17:25:57;185.80;;;108.35;;
55706;SDS011;41608;45.384;20.394;2023-02-15T17:28:25;241.10;;;134.68;;
55706;SDS011;41608;45.384;20.394;2023-02-15T17:30:52;248.52;;;137.05;;